createdAt,value
2023-03-26T00:00:25.854Z,0.00
2023-03-26T00:01:25.826Z,0.00
2023-03-26T00:02:25.854Z,0.00
2023-03-26T00:03:25.750Z,0.00
2023-03-26T00:04:25.753Z,0.00
2023-03-26T00:05:25.844Z,0.00
2023-03-26T00:06:25.709Z,0.00
2023-03-26T00:07:25.762Z,0.00
2023-03-26T00:08:25.687Z,0.00
2023-03-26T00:09:25.730Z,0.00
2023-03-26T00:10:25.767Z,0.00
2023-03-26T00:11:25.717Z,0.00
2023-03-26T00:12:25.656Z,0.00
2023-03-26T00:13:25.658Z,0.00
2023-03-26T00:14:25.629Z,0.00
2023-03-26T00:15:25.675Z,0.00
2023-03-26T00:16:25.673Z,0.00
2023-03-26T00:17:25.621Z,0.00
2023-03-26T00:18:25.568Z,0.00
2023-03-26T00:19:25.583Z,0.00
2023-03-26T00:20:25.613Z,0.00
2023-03-26T00:21:25.534Z,0.00
2023-03-26T00:22:25.550Z,0.00
2023-03-26T00:23:25.521Z,0.00
2023-03-26T00:24:25.518Z,0.00
2023-03-26T00:25:25.559Z,0.00
2023-03-26T00:26:25.524Z,0.00
2023-03-26T00:27:25.477Z,0.00
2023-03-26T00:28:25.464Z,0.00
2023-03-26T00:29:25.451Z,0.00
2023-03-26T00:30:25.504Z,0.00
2023-03-26T00:31:25.484Z,0.00
2023-03-26T00:32:25.450Z,0.00
2023-03-26T00:33:25.453Z,0.00
2023-03-26T00:34:25.421Z,0.00
2023-03-26T00:35:25.418Z,0.00
2023-03-26T00:36:25.883Z,0.00
2023-03-26T00:37:25.358Z,0.00
2023-03-26T00:38:25.335Z,0.00
2023-03-26T00:39:25.407Z,0.00
2023-03-26T00:40:25.417Z,0.00
2023-03-26T00:41:25.368Z,0.00
2023-03-26T00:42:25.324Z,0.00
2023-03-26T00:43:25.313Z,0.00
2023-03-26T00:44:25.412Z,0.00
2023-03-26T00:45:25.373Z,0.00
2023-03-26T00:46:25.408Z,0.00
2023-03-26T00:47:25.318Z,0.00
2023-03-26T00:48:37.793Z,0.00
2023-03-26T00:49:25.256Z,0.00
2023-03-26T00:50:25.289Z,0.00
2023-03-26T00:51:25.211Z,0.00
2023-03-26T00:52:25.178Z,0.00
2023-03-26T00:53:25.181Z,0.00
2023-03-26T00:54:25.159Z,0.00
2023-03-26T00:55:25.692Z,0.00
2023-03-26T00:56:25.141Z,0.00
2023-03-26T00:57:35.065Z,0.00
2023-03-26T00:58:25.118Z,0.00
2023-03-26T00:59:25.100Z,0.00
2023-03-26T01:00:25.108Z,0.00
2023-03-26T01:01:25.124Z,0.00
2023-03-26T01:02:25.159Z,0.00
2023-03-26T01:03:27.612Z,0.00
2023-03-26T01:04:25.185Z,0.00
2023-03-26T01:05:25.057Z,0.00
2023-03-26T01:06:25.020Z,0.00
2023-03-26T01:07:25.003Z,0.00
2023-03-26T01:08:25.055Z,0.00
2023-03-26T01:09:24.988Z,0.00
2023-03-26T01:10:25.013Z,0.00
2023-03-26T01:11:24.956Z,0.00
2023-03-26T01:12:24.957Z,0.00
2023-03-26T01:13:24.935Z,0.00
2023-03-26T01:14:24.940Z,0.00
2023-03-26T01:15:24.918Z,0.00
2023-03-26T01:16:25.000Z,0.00
2023-03-26T01:17:25.006Z,0.00
2023-03-26T01:18:24.883Z,0.00
2023-03-26T01:19:24.883Z,0.00
2023-03-26T01:20:24.869Z,0.00
2023-03-26T01:21:24.848Z,0.00
2023-03-26T01:22:24.856Z,0.00
2023-03-26T01:23:24.831Z,0.00
2023-03-26T01:24:24.811Z,0.00
2023-03-26T01:25:24.817Z,0.00
2023-03-26T01:26:24.790Z,0.00
2023-03-26T01:27:24.792Z,0.00
2023-03-26T01:28:24.769Z,0.00
2023-03-26T01:29:24.756Z,0.00
2023-03-26T01:30:24.776Z,0.00
2023-03-26T01:31:24.733Z,0.00
2023-03-26T01:32:24.820Z,0.00
2023-03-26T01:33:24.747Z,0.00
2023-03-26T01:34:24.715Z,0.00
2023-03-26T01:35:24.765Z,0.00
2023-03-26T01:36:24.682Z,0.00
2023-03-26T01:37:24.667Z,0.00
2023-03-26T01:38:24.672Z,0.00
2023-03-26T01:39:24.637Z,0.00
2023-03-26T01:40:24.663Z,0.00
2023-03-26T01:41:24.623Z,0.00
2023-03-26T01:42:24.607Z,0.00
2023-03-26T01:43:24.599Z,0.00
2023-03-26T01:44:24.585Z,0.00
2023-03-26T01:45:24.589Z,0.00
2023-03-26T01:46:24.616Z,0.00
2023-03-26T01:47:24.565Z,0.00
2023-03-26T01:48:24.541Z,0.00
2023-03-26T01:49:24.540Z,0.00
2023-03-26T01:50:24.540Z,0.00
2023-03-26T01:51:24.510Z,0.00
2023-03-26T01:52:24.504Z,0.00
2023-03-26T01:53:24.496Z,0.00
2023-03-26T01:54:24.479Z,0.00
2023-03-26T01:55:24.476Z,0.00
2023-03-26T01:56:24.458Z,0.00
2023-03-26T01:57:24.444Z,0.00
2023-03-26T01:58:24.427Z,0.00
2023-03-26T01:59:24.408Z,0.00
2023-03-26T02:00:24.433Z,0.00
2023-03-26T02:01:24.511Z,0.00
2023-03-26T02:02:24.493Z,0.00
2023-03-26T02:03:39.109Z,0.00
2023-03-26T02:04:24.371Z,0.00
2023-03-26T02:05:24.369Z,0.00
2023-03-26T02:06:24.357Z,0.00
2023-03-26T02:07:24.330Z,0.00
2023-03-26T02:08:24.317Z,0.00
2023-03-26T02:09:24.312Z,0.00
2023-03-26T02:10:24.302Z,0.00
2023-03-26T02:11:33.531Z,0.00
2023-03-26T02:12:24.271Z,0.00
2023-03-26T02:13:24.265Z,0.00
2023-03-26T02:14:24.239Z,0.00
2023-03-26T02:15:24.261Z,0.00
2023-03-26T02:16:24.270Z,0.00
2023-03-26T02:17:24.593Z,0.00
2023-03-26T02:18:24.351Z,0.00
2023-03-26T02:19:24.454Z,0.00
2023-03-26T02:20:24.204Z,0.00
2023-03-26T02:21:24.165Z,0.00
2023-03-26T02:22:24.147Z,0.00
2023-03-26T02:23:24.154Z,0.00
2023-03-26T02:24:24.128Z,0.00
2023-03-26T02:25:24.151Z,0.00
2023-03-26T02:26:24.104Z,0.00
2023-03-26T02:27:24.095Z,0.00
2023-03-26T02:28:24.081Z,0.00
2023-03-26T02:29:24.082Z,0.00
2023-03-26T02:30:24.071Z,0.00
2023-03-26T02:31:24.092Z,0.00
2023-03-26T02:32:24.100Z,0.00
2023-03-26T02:33:24.026Z,0.00
2023-03-26T02:34:24.008Z,0.00
2023-03-26T02:35:24.083Z,0.00
2023-03-26T02:36:24.126Z,0.00
2023-03-26T02:37:23.983Z,0.00
2023-03-26T02:38:23.973Z,0.00
2023-03-26T02:39:23.978Z,0.00
2023-03-26T02:40:23.965Z,0.00
2023-03-26T02:41:23.950Z,0.00
2023-03-26T02:42:23.927Z,0.00
2023-03-26T02:43:23.935Z,0.00
2023-03-26T02:44:23.899Z,0.00
2023-03-26T02:45:23.901Z,0.00
2023-03-26T02:46:23.946Z,0.00
2023-03-26T02:47:23.890Z,0.00
2023-03-26T02:48:23.867Z,0.00
2023-03-26T02:49:23.873Z,0.00
2023-03-26T02:50:23.858Z,0.00
2023-03-26T02:51:23.817Z,0.00
2023-03-26T02:52:23.814Z,0.00
2023-03-26T02:53:24.011Z,0.00
2023-03-26T02:54:23.798Z,0.00
2023-03-26T02:55:23.783Z,0.00
2023-03-26T02:56:23.784Z,0.00
2023-03-26T02:57:23.753Z,0.00
2023-03-26T02:58:23.796Z,0.00
2023-03-26T02:59:23.749Z,0.00
2023-03-26T03:00:23.732Z,0.00
2023-03-26T03:01:23.754Z,0.00
2023-03-26T03:02:23.720Z,0.00
2023-03-26T03:03:23.775Z,0.00
2023-03-26T03:04:23.669Z,0.00
2023-03-26T03:05:23.664Z,0.00
2023-03-26T03:06:23.677Z,0.00
2023-03-26T03:07:23.639Z,0.00
2023-03-26T03:08:23.689Z,0.00
2023-03-26T03:09:23.610Z,0.00
2023-03-26T03:10:23.603Z,0.00
2023-03-26T03:11:23.631Z,0.00
2023-03-26T03:12:23.591Z,0.00
2023-03-26T03:13:23.562Z,0.00
2023-03-26T03:14:23.564Z,0.00
2023-03-26T03:15:23.539Z,0.00
2023-03-26T03:16:23.601Z,0.00
2023-03-26T03:17:23.562Z,0.00
2023-03-26T03:18:23.514Z,0.00
2023-03-26T03:19:23.496Z,0.00
2023-03-26T03:20:23.503Z,0.00
2023-03-26T03:21:23.496Z,0.00
2023-03-26T03:22:23.467Z,0.00
2023-03-26T03:23:23.473Z,0.00
2023-03-26T03:24:23.500Z,0.00
2023-03-26T03:25:23.433Z,0.00
2023-03-26T03:26:23.479Z,0.00
2023-03-26T03:27:23.411Z,0.00
2023-03-26T03:28:23.424Z,0.00
2023-03-26T03:29:23.390Z,0.00
2023-03-26T03:30:23.397Z,0.00
2023-03-26T03:31:23.442Z,0.00
2023-03-26T03:32:23.408Z,0.00
2023-03-26T03:33:23.355Z,0.00
2023-03-26T03:34:23.349Z,0.00
2023-03-26T03:35:23.378Z,0.00
2023-03-26T03:36:23.329Z,0.00
2023-03-26T03:37:23.304Z,0.00
2023-03-26T03:38:23.431Z,0.00
2023-03-26T03:39:23.274Z,0.00
2023-03-26T03:40:23.270Z,0.00
2023-03-26T03:41:23.264Z,0.00
2023-03-26T03:42:23.264Z,0.00
2023-03-26T03:43:23.238Z,0.00
2023-03-26T03:44:23.220Z,0.00
2023-03-26T03:45:23.212Z,0.00
2023-03-26T03:46:23.321Z,0.00
2023-03-26T03:47:23.224Z,0.00
2023-03-26T03:48:23.187Z,0.00
2023-03-26T03:49:23.160Z,0.00
2023-03-26T03:50:23.165Z,0.00
2023-03-26T03:51:23.170Z,0.00
2023-03-26T03:52:23.141Z,0.00
2023-03-26T03:53:23.114Z,0.00
2023-03-26T03:54:23.107Z,0.00
2023-03-26T03:55:23.090Z,0.00
2023-03-26T03:56:23.117Z,0.00
2023-03-26T03:57:23.091Z,0.00
2023-03-26T03:58:23.066Z,0.00
2023-03-26T03:59:23.047Z,0.00
2023-03-26T04:00:23.032Z,0.00
2023-03-26T04:01:23.066Z,0.00
2023-03-26T04:02:23.094Z,0.00
2023-03-26T04:03:33.996Z,0.00
2023-03-26T04:04:23.025Z,0.00
2023-03-26T04:05:23.000Z,0.00
2023-03-26T04:06:23.013Z,0.00
2023-03-26T04:07:22.956Z,0.00
2023-03-26T04:08:22.956Z,0.00
2023-03-26T04:09:22.941Z,0.00
2023-03-26T04:10:22.928Z,0.00
2023-03-26T04:11:22.947Z,0.00
2023-03-26T04:12:22.898Z,0.00
2023-03-26T04:13:22.901Z,0.00
2023-03-26T04:14:22.892Z,0.00
2023-03-26T04:15:22.915Z,0.00
2023-03-26T04:16:22.921Z,0.00
2023-03-26T04:17:22.990Z,0.00
2023-03-26T04:18:22.859Z,0.00
2023-03-26T04:19:22.817Z,0.00
2023-03-26T04:20:22.817Z,0.00
2023-03-26T04:21:22.818Z,0.00
2023-03-26T04:22:22.786Z,0.00
2023-03-26T04:23:22.784Z,0.00
2023-03-26T04:24:22.785Z,0.00
2023-03-26T04:25:22.751Z,0.00
2023-03-26T04:26:22.761Z,0.00
2023-03-26T04:27:22.728Z,0.00
2023-03-26T04:28:22.723Z,0.00
2023-03-26T04:29:22.702Z,0.00
2023-03-26T04:30:22.741Z,0.00
2023-03-26T04:31:22.760Z,0.00
2023-03-26T04:32:22.678Z,0.00
2023-03-26T04:33:22.660Z,0.00
2023-03-26T04:34:22.664Z,0.00
2023-03-26T04:35:22.678Z,0.00
2023-03-26T04:36:22.647Z,0.00
2023-03-26T04:37:22.622Z,0.00
2023-03-26T04:38:22.606Z,0.00
2023-03-26T04:39:22.602Z,0.00
2023-03-26T04:40:22.610Z,0.00
2023-03-26T04:41:22.579Z,0.00
2023-03-26T04:42:22.563Z,0.00
2023-03-26T04:43:22.550Z,0.00
2023-03-26T04:44:22.632Z,0.00
2023-03-26T04:45:23.025Z,0.00
2023-03-26T04:46:22.582Z,0.00
2023-03-26T04:47:22.507Z,0.00
2023-03-26T04:48:22.492Z,0.00
2023-03-26T04:49:22.494Z,0.00
2023-03-26T04:50:22.492Z,0.00
2023-03-26T04:51:22.477Z,4.00
2023-03-26T04:52:22.463Z,0.00
2023-03-26T04:53:22.440Z,4.00
2023-03-26T04:54:22.431Z,0.00
2023-03-26T04:55:22.414Z,0.00
2023-03-26T04:56:22.456Z,4.00
2023-03-26T04:57:22.396Z,4.00
2023-03-26T04:58:22.535Z,4.00
2023-03-26T04:59:22.367Z,0.00
2023-03-26T05:00:22.352Z,8.00
2023-03-26T05:01:22.395Z,8.00
2023-03-26T05:02:22.332Z,4.00
2023-03-26T05:03:22.316Z,4.00
2023-03-26T05:04:22.353Z,8.00
2023-03-26T05:05:22.295Z,8.00
2023-03-26T05:06:22.309Z,12.00
2023-03-26T05:07:22.285Z,12.00
2023-03-26T05:08:22.260Z,16.00
2023-03-26T05:09:22.257Z,20.00
2023-03-26T05:10:22.251Z,24.00
2023-03-26T05:11:22.260Z,28.00
2023-03-26T05:12:22.233Z,32.00
2023-03-26T05:13:22.229Z,36.00
2023-03-26T05:14:22.196Z,44.00
2023-03-26T05:15:22.182Z,48.00
2023-03-26T05:16:22.224Z,56.00
2023-03-26T05:17:22.164Z,68.00
2023-03-26T05:18:22.138Z,76.00
2023-03-26T05:19:22.143Z,88.00
2023-03-26T05:20:22.128Z,104.00
2023-03-26T05:21:22.137Z,116.00
2023-03-26T05:22:22.163Z,132.00
2023-03-26T05:23:22.093Z,144.00
2023-03-26T05:24:22.085Z,160.00
2023-03-26T05:25:22.070Z,180.00
2023-03-26T05:26:22.090Z,196.00
2023-03-26T05:27:22.056Z,212.00
2023-03-26T05:28:22.049Z,236.00
2023-03-26T05:29:22.030Z,256.00
2023-03-26T05:30:22.031Z,272.00
2023-03-26T05:31:22.022Z,292.00
2023-03-26T05:32:21.990Z,312.00
2023-03-26T05:33:22.094Z,328.00
2023-03-26T05:34:22.072Z,348.00
2023-03-26T05:35:21.971Z,364.00
2023-03-26T05:36:21.954Z,380.00
2023-03-26T05:37:22.002Z,396.00
2023-03-26T05:38:22.083Z,412.00
2023-03-26T05:39:21.965Z,428.00
2023-03-26T05:40:21.896Z,440.00
2023-03-26T05:41:21.954Z,456.00
2023-03-26T05:42:21.872Z,472.00
2023-03-26T05:43:21.871Z,496.00
2023-03-26T05:44:21.856Z,524.00
2023-03-26T05:45:21.980Z,552.00
2023-03-26T05:46:22.051Z,572.00
2023-03-26T05:47:21.827Z,592.00
2023-03-26T05:48:21.808Z,608.00
2023-03-26T05:49:21.879Z,636.00
2023-03-26T05:50:21.823Z,664.00
2023-03-26T05:51:21.786Z,692.00
2023-03-26T05:52:21.779Z,724.00
2023-03-26T05:53:21.768Z,756.00
2023-03-26T05:54:21.766Z,788.00
2023-03-26T05:55:21.760Z,816.00
2023-03-26T05:56:21.786Z,832.00
2023-03-26T05:57:21.712Z,852.00
2023-03-26T05:58:21.730Z,876.00
2023-03-26T05:59:21.724Z,896.00
2023-03-26T06:00:21.736Z,912.00
2023-03-26T06:01:21.690Z,940.00
2023-03-26T06:02:21.691Z,956.00
2023-03-26T06:03:21.682Z,968.00
2023-03-26T06:04:21.779Z,988.00
2023-03-26T06:05:21.624Z,1012.00
2023-03-26T06:06:21.640Z,1040.00
2023-03-26T06:07:21.601Z,1068.00
2023-03-26T06:08:21.632Z,1092.00
2023-03-26T06:09:21.681Z,1120.00
2023-03-26T06:10:21.552Z,1144.00
2023-03-26T06:11:21.613Z,1172.00
2023-03-26T06:12:21.529Z,1204.00
2023-03-26T06:13:21.521Z,1228.00
2023-03-26T06:14:21.515Z,1256.00
2023-03-26T06:15:21.496Z,1280.00
2023-03-26T06:16:27.319Z,1304.00
2023-03-26T06:17:21.478Z,1324.00
2023-03-26T06:18:21.509Z,1344.00
2023-03-26T06:19:21.572Z,1368.00
2023-03-26T06:20:21.436Z,1388.00
2023-03-26T06:21:21.464Z,1420.00
2023-03-26T06:22:21.423Z,1456.00
2023-03-26T06:23:21.411Z,1476.00
2023-03-26T06:24:21.396Z,1508.00
2023-03-26T06:25:21.384Z,1524.00
2023-03-26T06:26:21.400Z,1536.00
2023-03-26T06:27:21.445Z,1520.00
2023-03-26T06:28:21.355Z,1512.00
2023-03-26T06:29:21.336Z,1520.00
2023-03-26T06:30:21.331Z,1544.00
2023-03-26T06:31:21.412Z,1580.00
2023-03-26T06:32:21.410Z,1624.00
2023-03-26T06:33:23.370Z,1672.00
2023-03-26T06:34:21.300Z,1720.00
2023-03-26T06:35:21.281Z,1756.00
2023-03-26T06:36:21.286Z,1792.00
2023-03-26T06:37:21.253Z,1828.00
2023-03-26T06:38:21.238Z,1848.00
2023-03-26T06:39:21.308Z,1868.00
2023-03-26T06:40:21.310Z,1880.00
2023-03-26T06:41:21.329Z,1888.00
2023-03-26T06:42:21.239Z,1884.00
2023-03-26T06:43:21.266Z,1872.00
2023-03-26T06:44:21.232Z,1860.00
2023-03-26T06:45:21.273Z,1840.00
2023-03-26T06:46:21.329Z,1816.00
2023-03-26T06:47:21.241Z,1792.00
2023-03-26T06:48:21.214Z,1764.00
2023-03-26T06:49:21.203Z,1740.00
2023-03-26T06:50:21.250Z,1716.00
2023-03-26T06:51:21.207Z,1692.00
2023-03-26T06:52:21.158Z,1672.00
2023-03-26T06:53:21.103Z,1656.00
2023-03-26T06:54:21.052Z,1652.00
2023-03-26T06:55:21.046Z,1656.00
2023-03-26T06:56:21.050Z,1664.00
2023-03-26T06:57:21.055Z,1680.00
2023-03-26T06:58:21.025Z,1704.00
2023-03-26T06:59:20.998Z,1736.00
2023-03-26T07:00:20.998Z,1764.00
2023-03-26T07:01:21.065Z,1796.00
2023-03-26T07:02:20.981Z,1828.00
2023-03-26T07:03:20.962Z,1860.00
2023-03-26T07:04:20.964Z,1888.00
2023-03-26T07:05:20.937Z,1912.00
2023-03-26T07:06:20.944Z,1936.00
2023-03-26T07:07:20.909Z,1952.00
2023-03-26T07:08:20.999Z,1964.00
2023-03-26T07:09:20.894Z,1972.00
2023-03-26T07:10:20.878Z,1968.00
2023-03-26T07:11:20.892Z,1960.00
2023-03-26T07:12:20.851Z,1940.00
2023-03-26T07:13:20.911Z,1896.00
2023-03-26T07:14:20.821Z,1844.00
2023-03-26T07:15:20.828Z,1808.00
2023-03-26T07:16:20.869Z,1788.00
2023-03-26T07:17:20.793Z,1780.00
2023-03-26T07:18:20.788Z,1796.00
2023-03-26T07:19:20.777Z,1840.00
2023-03-26T07:20:20.879Z,1904.00
2023-03-26T07:21:20.799Z,1976.00
2023-03-26T07:22:20.734Z,2044.00
2023-03-26T07:23:20.944Z,2108.00
2023-03-26T07:24:20.731Z,2152.00
2023-03-26T07:25:20.709Z,2172.00
2023-03-26T07:26:20.720Z,2176.00
2023-03-26T07:27:20.700Z,2168.00
2023-03-26T07:28:20.672Z,2180.00
2023-03-26T07:29:20.677Z,2220.00
2023-03-26T07:30:20.650Z,2284.00
2023-03-26T07:31:20.734Z,2364.00
2023-03-26T07:32:20.623Z,2444.00
2023-03-26T07:33:20.633Z,2516.00
2023-03-26T07:34:20.604Z,2560.00
2023-03-26T07:35:20.617Z,2584.00
2023-03-26T07:36:20.612Z,2580.00
2023-03-26T07:37:20.577Z,2560.00
2023-03-26T07:38:20.550Z,2508.00
2023-03-26T07:39:20.550Z,2432.00
2023-03-26T07:40:20.570Z,2348.00
2023-03-26T07:41:20.544Z,2288.00
2023-03-26T07:42:20.513Z,2260.00
2023-03-26T07:43:20.597Z,2260.00
2023-03-26T07:44:20.489Z,2280.00
2023-03-26T07:45:20.521Z,2312.00
2023-03-26T07:46:20.527Z,2336.00
2023-03-26T07:47:20.464Z,2360.00
2023-03-26T07:48:20.442Z,2376.00
2023-03-26T07:49:20.452Z,2388.00
2023-03-26T07:50:20.412Z,2416.00
2023-03-26T07:51:20.454Z,2448.00
2023-03-26T07:52:20.388Z,2484.00
2023-03-26T07:53:20.385Z,2504.00
2023-03-26T07:54:20.390Z,2504.00
2023-03-26T07:55:20.362Z,2508.00
2023-03-26T07:56:20.427Z,2528.00
2023-03-26T07:57:20.363Z,2560.00
2023-03-26T07:58:20.324Z,2596.00
2023-03-26T07:59:20.321Z,2620.00
2023-03-26T08:00:20.340Z,2652.00
2023-03-26T08:01:20.315Z,2680.00
2023-03-26T08:02:20.320Z,2708.00
2023-03-26T08:03:20.494Z,2736.00
2023-03-26T08:04:23.239Z,2760.00
2023-03-26T08:05:20.310Z,2768.00
2023-03-26T08:06:20.248Z,2768.00
2023-03-26T08:07:20.226Z,2748.00
2023-03-26T08:08:20.222Z,2724.00
2023-03-26T08:09:20.219Z,2700.00
2023-03-26T08:10:20.218Z,2688.00
2023-03-26T08:11:20.204Z,2684.00
2023-03-26T08:12:20.188Z,2696.00
2023-03-26T08:13:20.168Z,2728.00
2023-03-26T08:14:20.143Z,2776.00
2023-03-26T08:15:20.134Z,2832.00
2023-03-26T08:16:20.178Z,2884.00
2023-03-26T08:17:20.116Z,2936.00
2023-03-26T08:18:20.113Z,2980.00
2023-03-26T08:19:20.110Z,3020.00
2023-03-26T08:20:20.076Z,3040.00
2023-03-26T08:21:20.087Z,3036.00
2023-03-26T08:22:20.055Z,3020.00
2023-03-26T08:23:20.056Z,3016.00
2023-03-26T08:24:20.033Z,3040.00
2023-03-26T08:25:20.032Z,3088.00
2023-03-26T08:26:20.039Z,3160.00
2023-03-26T08:27:19.993Z,3236.00
2023-03-26T08:28:19.989Z,3304.00
2023-03-26T08:29:19.998Z,3360.00
2023-03-26T08:30:19.955Z,3400.00
2023-03-26T08:31:20.511Z,3436.00
2023-03-26T08:32:19.957Z,3460.00
2023-03-26T08:33:19.942Z,3496.00
2023-03-26T08:34:19.937Z,3540.00
2023-03-26T08:35:19.943Z,3596.00
2023-03-26T08:36:19.903Z,3648.00
2023-03-26T08:37:19.923Z,3704.00
2023-03-26T08:38:19.870Z,3760.00
2023-03-26T08:39:19.891Z,3804.00
2023-03-26T08:40:19.855Z,3848.00
2023-03-26T08:41:19.846Z,3892.00
2023-03-26T08:42:19.853Z,3936.00
2023-03-26T08:43:19.853Z,3976.00
2023-03-26T08:44:19.799Z,3984.00
2023-03-26T08:45:19.798Z,3944.00
2023-03-26T08:46:19.892Z,3888.00
2023-03-26T08:47:19.769Z,3836.00
2023-03-26T08:48:19.757Z,3784.00
2023-03-26T08:49:19.788Z,3756.00
2023-03-26T08:50:19.734Z,3736.00
2023-03-26T08:51:19.725Z,3700.00
2023-03-26T08:52:19.740Z,3632.00
2023-03-26T08:53:19.704Z,3548.00
2023-03-26T08:54:19.694Z,3460.00
2023-03-26T08:55:19.712Z,3420.00
2023-03-26T08:56:19.663Z,3420.00
2023-03-26T08:57:19.657Z,3416.00
2023-03-26T08:58:19.652Z,3380.00
2023-03-26T08:59:19.632Z,3332.00
2023-03-26T09:00:19.622Z,3268.00
2023-03-26T09:01:19.744Z,3148.00
2023-03-26T09:02:19.602Z,2976.00
2023-03-26T09:03:19.583Z,2776.00
2023-03-26T09:04:19.719Z,2572.00
2023-03-26T09:05:19.564Z,2412.00
2023-03-26T09:06:19.580Z,2288.00
2023-03-26T09:07:19.549Z,2176.00
2023-03-26T09:08:19.534Z,2036.00
2023-03-26T09:09:19.625Z,1912.00
2023-03-26T09:10:19.525Z,1828.00
2023-03-26T09:11:19.496Z,1788.00
2023-03-26T09:12:19.521Z,1768.00
2023-03-26T09:13:19.470Z,1740.00
2023-03-26T09:14:19.493Z,1692.00
2023-03-26T09:15:19.448Z,1644.00
2023-03-26T09:16:19.468Z,1584.00
2023-03-26T09:17:19.432Z,1536.00
2023-03-26T09:18:19.457Z,1508.00
2023-03-26T09:19:19.408Z,1504.00
2023-03-26T09:20:19.408Z,1536.00
2023-03-26T09:21:19.390Z,1568.00
2023-03-26T09:22:19.380Z,1580.00
2023-03-26T09:23:19.367Z,1588.00
2023-03-26T09:24:19.376Z,1600.00
2023-03-26T09:25:19.357Z,1644.00
2023-03-26T09:26:19.355Z,1720.00
2023-03-26T09:27:19.317Z,1812.00
2023-03-26T09:28:19.320Z,1868.00
2023-03-26T09:29:19.292Z,1880.00
2023-03-26T09:30:19.291Z,1860.00
2023-03-26T09:31:19.332Z,1816.00
2023-03-26T09:32:19.271Z,1768.00
2023-03-26T09:33:19.258Z,1680.00
2023-03-26T09:34:19.250Z,1588.00
2023-03-26T09:35:19.287Z,1540.00
2023-03-26T09:36:19.239Z,1484.00
2023-03-26T09:37:19.207Z,1436.00
2023-03-26T09:38:19.210Z,1404.00
2023-03-26T09:39:19.185Z,1396.00
2023-03-26T09:40:19.197Z,1392.00
2023-03-26T09:41:19.190Z,1396.00
2023-03-26T09:42:19.167Z,1436.00
2023-03-26T09:43:19.140Z,1488.00
2023-03-26T09:44:19.143Z,1516.00
2023-03-26T09:45:19.117Z,1520.00
2023-03-26T09:46:19.193Z,1508.00
2023-03-26T09:47:19.145Z,1484.00
2023-03-26T09:48:19.096Z,1424.00
2023-03-26T09:49:19.087Z,1372.00
2023-03-26T09:50:19.107Z,1352.00
2023-03-26T09:51:19.090Z,1396.00
2023-03-26T09:52:19.117Z,1488.00
2023-03-26T09:53:19.058Z,1640.00
2023-03-26T09:54:19.013Z,1800.00
2023-03-26T09:55:19.004Z,1892.00
2023-03-26T09:56:19.008Z,1864.00
2023-03-26T09:57:19.035Z,1848.00
2023-03-26T09:58:18.974Z,1940.00
2023-03-26T09:59:18.953Z,2096.00
2023-03-26T10:00:18.958Z,2212.00
2023-03-26T10:01:18.969Z,2292.00
2023-03-26T10:02:18.947Z,2344.00
2023-03-26T10:03:18.949Z,2376.00
2023-03-26T10:04:18.925Z,2388.00
2023-03-26T10:05:18.972Z,2400.00
2023-03-26T10:06:18.923Z,2408.00
2023-03-26T10:07:18.860Z,2384.00
2023-03-26T10:08:18.898Z,2384.00
2023-03-26T10:09:18.845Z,2388.00
2023-03-26T10:10:18.833Z,2404.00
2023-03-26T10:11:18.838Z,2356.00
2023-03-26T10:12:18.818Z,2380.00
2023-03-26T10:13:18.798Z,2412.00
2023-03-26T10:14:18.790Z,2392.00
2023-03-26T10:15:18.794Z,2372.00
2023-03-26T10:16:18.817Z,2324.00
2023-03-26T10:17:18.753Z,2324.00
2023-03-26T10:18:27.678Z,2388.00
2023-03-26T10:19:18.734Z,2460.00
2023-03-26T10:20:18.723Z,2564.00
2023-03-26T10:21:18.729Z,2724.00
2023-03-26T10:22:18.709Z,2840.00
2023-03-26T10:23:18.920Z,2832.00
2023-03-26T10:24:18.694Z,2792.00
2023-03-26T10:25:18.666Z,2700.00
2023-03-26T10:26:18.670Z,2648.00
2023-03-26T10:27:18.640Z,2684.00
2023-03-26T10:28:18.636Z,2712.00
2023-03-26T10:29:18.620Z,2772.00
2023-03-26T10:30:18.609Z,2876.00
2023-03-26T10:31:18.671Z,2944.00
2023-03-26T10:32:18.584Z,2968.00
2023-03-26T10:33:18.564Z,2948.00
2023-03-26T10:34:28.385Z,2932.00
2023-03-26T10:35:18.597Z,2968.00
2023-03-26T10:36:18.569Z,2944.00
2023-03-26T10:37:18.839Z,2812.00
2023-03-26T10:38:18.522Z,2776.00
2023-03-26T10:39:37.149Z,2752.00
2023-03-26T10:40:18.517Z,2672.00
2023-03-26T10:41:18.495Z,2624.00
2023-03-26T10:42:18.483Z,2604.00
2023-03-26T10:43:18.477Z,2588.00
2023-03-26T10:44:18.443Z,2528.00
2023-03-26T10:45:18.438Z,2484.00
2023-03-26T10:46:18.484Z,2464.00
2023-03-26T10:47:18.403Z,2456.00
2023-03-26T10:48:18.403Z,2464.00
2023-03-26T10:49:18.396Z,2488.00
2023-03-26T10:50:23.794Z,2528.00
2023-03-26T10:51:18.397Z,2544.00
2023-03-26T10:52:18.352Z,2552.00
2023-03-26T10:53:18.348Z,2556.00
2023-03-26T10:54:18.331Z,2544.00
2023-03-26T10:55:18.348Z,2520.00
2023-03-26T10:56:18.339Z,2464.00
2023-03-26T10:57:18.350Z,2404.00
2023-03-26T10:58:18.297Z,2340.00
2023-03-26T10:59:18.283Z,2264.00
2023-03-26T11:00:18.325Z,2216.00
2023-03-26T11:01:18.295Z,2188.00
2023-03-26T11:02:18.243Z,2212.00
2023-03-26T11:03:18.240Z,2260.00
2023-03-26T11:04:18.223Z,2296.00
2023-03-26T11:05:18.241Z,2304.00
2023-03-26T11:06:18.259Z,2280.00
2023-03-26T11:07:18.188Z,2248.00
2023-03-26T11:08:18.180Z,2208.00
2023-03-26T11:09:18.205Z,2176.00
2023-03-26T11:10:18.168Z,2124.00
2023-03-26T11:11:18.162Z,2076.00
2023-03-26T11:12:26.717Z,2044.00
2023-03-26T11:13:18.154Z,1952.00
2023-03-26T11:14:27.928Z,1780.00
2023-03-26T11:15:18.115Z,1556.00
2023-03-26T11:16:18.119Z,1332.00
2023-03-26T11:17:40.627Z,1200.00
2023-03-26T11:18:18.117Z,1188.00
2023-03-26T11:19:18.055Z,1216.00
2023-03-26T11:20:18.066Z,1280.00
2023-03-26T11:21:20.689Z,1380.00
2023-03-26T11:22:18.019Z,1488.00
2023-03-26T11:23:18.015Z,1596.00
2023-03-26T11:24:17.999Z,1672.00
2023-03-26T11:25:17.988Z,1692.00
2023-03-26T11:26:18.025Z,1668.00
2023-03-26T11:27:19.997Z,1600.00
2023-03-26T11:28:17.961Z,1540.00
2023-03-26T11:29:31.576Z,1544.00
2023-03-26T11:30:17.935Z,1576.00
2023-03-26T11:31:17.968Z,1628.00
2023-03-26T11:32:17.908Z,1668.00
2023-03-26T11:33:17.894Z,1692.00
2023-03-26T11:34:17.903Z,1696.00
2023-03-26T11:35:17.871Z,1684.00
2023-03-26T11:36:17.948Z,1676.00
2023-03-26T11:37:17.864Z,1684.00
2023-03-26T11:38:17.851Z,1708.00
2023-03-26T11:39:17.830Z,1740.00
2023-03-26T11:40:17.818Z,1772.00
2023-03-26T11:41:22.524Z,1796.00
2023-03-26T11:42:17.808Z,1808.00
2023-03-26T11:43:17.801Z,1812.00
2023-03-26T11:44:17.769Z,1812.00
2023-03-26T11:45:17.774Z,1800.00
2023-03-26T11:46:17.794Z,1784.00
2023-03-26T11:47:17.743Z,1744.00
2023-03-26T11:48:17.731Z,1704.00
2023-03-26T11:49:17.718Z,1644.00
2023-03-26T11:50:17.714Z,1628.00
2023-03-26T11:51:17.710Z,1656.00
2023-03-26T11:52:17.736Z,1704.00
2023-03-26T11:53:17.672Z,1740.00
2023-03-26T11:54:17.666Z,1788.00
2023-03-26T11:55:17.649Z,1852.00
2023-03-26T11:56:17.676Z,1920.00
2023-03-26T11:57:17.645Z,1984.00
2023-03-26T11:58:17.622Z,2064.00
2023-03-26T11:59:18.785Z,2152.00
2023-03-26T12:00:17.612Z,2228.00
2023-03-26T12:01:17.593Z,2296.00
2023-03-26T12:02:17.642Z,2368.00
2023-03-26T12:03:17.581Z,2440.00
2023-03-26T12:04:17.590Z,2532.00
2023-03-26T12:05:17.565Z,2648.00
2023-03-26T12:06:17.563Z,2748.00
2023-03-26T12:07:17.513Z,2820.00
2023-03-26T12:08:17.511Z,2852.00
2023-03-26T12:09:17.485Z,2856.00
2023-03-26T12:10:20.767Z,2852.00
2023-03-26T12:11:17.477Z,2848.00
2023-03-26T12:12:17.478Z,2840.00
2023-03-26T12:13:17.435Z,2828.00
2023-03-26T12:14:17.433Z,2824.00
2023-03-26T12:15:17.428Z,2820.00
2023-03-26T12:16:17.449Z,2816.00
2023-03-26T12:17:17.391Z,2804.00
2023-03-26T12:18:17.398Z,2776.00
2023-03-26T12:19:17.385Z,2724.00
2023-03-26T12:20:17.371Z,2676.00
2023-03-26T12:21:17.359Z,2628.00
2023-03-26T12:22:17.338Z,2568.00
2023-03-26T12:23:17.327Z,2512.00
2023-03-26T12:24:17.313Z,2444.00
2023-03-26T12:25:17.311Z,2356.00
2023-03-26T12:26:17.353Z,2300.00
2023-03-26T12:27:17.275Z,2272.00
2023-03-26T12:28:17.276Z,2236.00
2023-03-26T12:29:17.259Z,2180.00
2023-03-26T12:30:17.253Z,2108.00
2023-03-26T12:31:17.258Z,2044.00
2023-03-26T12:32:17.243Z,1976.00
2023-03-26T12:33:17.244Z,1912.00
2023-03-26T12:34:17.244Z,1848.00
2023-03-26T12:35:17.185Z,1880.00